createdAt,value
2022-11-24T00:01:30.647Z,15.80
2022-11-24T00:04:04.358Z,14.60
2022-11-24T00:06:34.214Z,14.10
2022-11-24T00:09:01.978Z,13.40
2022-11-24T00:11:32.148Z,14.80
2022-11-24T00:13:59.915Z,14.50
2022-11-24T00:16:30.962Z,14.20
2022-11-24T00:19:00.376Z,13.00
2022-11-24T00:21:29.971Z,12.30
2022-11-24T00:23:57.546Z,12.70
2022-11-24T00:26:30.469Z,13.60
2022-11-24T00:29:00.334Z,13.50
2022-11-24T00:31:36.769Z,13.40
2022-11-24T00:34:08.155Z,12.00
2022-11-24T00:36:36.570Z,13.10
2022-11-24T00:39:07.762Z,14.10
2022-11-24T00:41:34.999Z,12.30
2022-11-24T00:44:02.289Z,13.20
2022-11-24T00:46:29.315Z,13.60
2022-11-24T00:48:56.436Z,11.70
2022-11-24T00:51:27.979Z,11.60
2022-11-24T00:53:56.419Z,11.20
2022-11-24T00:56:23.967Z,12.20
2022-11-24T00:58:50.711Z,12.70
2022-11-24T01:01:21.494Z,12.80
2022-11-24T01:03:48.573Z,12.80
2022-11-24T01:06:22.659Z,12.90
2022-11-24T01:08:49.884Z,12.90
2022-11-24T01:11:51.264Z,12.90
2022-11-24T01:14:18.771Z,12.70
2022-11-24T01:16:45.361Z,13.00
2022-11-24T01:19:11.804Z,11.60
2022-11-24T01:21:38.334Z,12.20
2022-11-24T01:24:05.458Z,12.40
2022-11-24T01:26:32.008Z,14.00
2022-11-24T01:28:59.084Z,14.10
2022-11-24T01:31:27.080Z,12.80
2022-11-24T01:33:54.482Z,12.80
2022-11-24T01:36:21.451Z,12.90
2022-11-24T01:38:48.358Z,13.30
2022-11-24T01:41:22.474Z,12.30
2022-11-24T01:43:50.956Z,12.20
2022-11-24T01:46:44.111Z,13.80
2022-11-24T01:49:23.808Z,11.60
2022-11-24T01:52:10.724Z,10.70
2022-11-24T01:54:44.844Z,11.10
2022-11-24T01:57:40.199Z,13.40
2022-11-24T02:00:11.682Z,14.40
2022-11-24T02:02:39.500Z,13.80
2022-11-24T02:05:34.020Z,12.90
2022-11-24T02:08:02.328Z,13.20
2022-11-24T02:13:25.088Z,14.60
2022-11-24T02:15:53.406Z,13.90
2022-11-24T02:18:19.949Z,14.20
2022-11-24T02:20:46.416Z,13.60
2022-11-24T02:23:42.206Z,13.40
2022-11-24T02:26:34.529Z,13.80
2022-11-24T02:29:01.717Z,14.30
2022-11-24T02:31:28.971Z,13.40
2022-11-24T02:33:56.077Z,13.60
2022-11-24T02:36:22.653Z,15.00
2022-11-24T02:38:49.156Z,14.60
2022-11-24T02:41:21.495Z,15.40
2022-11-24T02:43:57.351Z,15.30
2022-11-24T02:46:24.268Z,15.80
2022-11-24T02:48:51.473Z,16.10
2022-11-24T02:51:18.413Z,15.30
2022-11-24T02:53:45.028Z,16.00
2022-11-24T02:56:11.548Z,15.50
2022-11-24T02:58:38.259Z,15.30
2022-11-24T03:01:05.321Z,17.10
2022-11-24T03:03:32.023Z,16.60
2022-11-24T03:05:58.581Z,16.50
2022-11-24T03:08:25.055Z,14.80
2022-11-24T03:10:51.635Z,15.90
2022-11-24T03:13:18.083Z,17.10
2022-11-24T03:15:44.648Z,16.50
2022-11-24T03:18:11.126Z,14.10
2022-11-24T03:20:37.653Z,16.10
2022-11-24T03:23:04.210Z,15.80
2022-11-24T03:25:30.703Z,13.10
2022-11-24T03:27:58.181Z,15.50
2022-11-24T03:30:24.762Z,14.50
2022-11-24T03:32:53.689Z,14.60
2022-11-24T03:35:22.238Z,15.70
2022-11-24T03:37:49.391Z,15.20
2022-11-24T03:40:18.015Z,16.10
2022-11-24T03:42:44.446Z,15.70
2022-11-24T03:45:38.079Z,14.50
2022-11-24T03:47:58.475Z,13.50
2022-11-24T03:50:25.387Z,14.50
2022-11-24T03:52:51.803Z,14.80
2022-11-24T03:55:18.275Z,16.60
2022-11-24T03:57:44.856Z,15.60
2022-11-24T04:00:12.075Z,15.50
2022-11-24T04:02:38.728Z,15.80
2022-11-24T04:05:06.791Z,16.00
2022-11-24T04:07:33.423Z,13.70
2022-11-24T04:09:59.904Z,15.60
2022-11-24T04:12:44.418Z,15.00
2022-11-24T04:15:15.123Z,16.00
2022-11-24T04:17:42.564Z,14.60
2022-11-24T04:20:11.159Z,13.50
2022-11-24T04:22:38.292Z,15.90
2022-11-24T04:25:06.545Z,14.50
2022-11-24T04:27:34.507Z,13.60
2022-11-24T04:30:00.979Z,14.20
2022-11-24T04:32:27.922Z,13.00
2022-11-24T04:34:54.373Z,14.70
2022-11-24T04:37:20.879Z,15.70
2022-11-24T04:39:47.397Z,15.20
2022-11-24T04:42:14.323Z,14.30
2022-11-24T04:44:40.824Z,15.20
2022-11-24T04:47:07.614Z,15.10
2022-11-24T04:49:34.054Z,14.60
2022-11-24T04:52:00.541Z,13.60
2022-11-24T04:54:27.308Z,12.40
2022-11-24T04:56:53.749Z,14.10
2022-11-24T04:59:20.323Z,13.20
2022-11-24T05:01:47.457Z,14.30
2022-11-24T05:04:15.671Z,14.10
2022-11-24T05:06:42.365Z,13.80
2022-11-24T05:09:13.700Z,14.50
2022-11-24T05:11:41.483Z,14.30
2022-11-24T05:14:07.883Z,14.00
2022-11-24T05:16:34.877Z,14.70
2022-11-24T05:19:01.291Z,13.20
2022-11-24T05:21:28.695Z,15.20
2022-11-24T05:23:55.244Z,15.00
2022-11-24T05:26:21.668Z,13.30
2022-11-24T05:28:48.048Z,15.10
2022-11-24T05:31:14.516Z,14.40
2022-11-24T05:33:40.995Z,12.60
2022-11-24T05:36:07.865Z,14.20
2022-11-24T05:38:35.552Z,14.00
2022-11-24T05:41:04.681Z,14.80
2022-11-24T05:43:31.730Z,12.60
2022-11-24T05:46:02.030Z,15.00
2022-11-24T05:48:28.497Z,13.50
2022-11-24T05:50:56.908Z,13.80
2022-11-24T05:53:23.805Z,13.70
2022-11-24T05:55:50.304Z,12.10
2022-11-24T05:58:16.741Z,12.50
2022-11-24T06:00:43.110Z,12.50
2022-11-24T06:03:12.340Z,11.20
2022-11-24T06:05:39.074Z,12.50
2022-11-24T06:08:05.558Z,12.50
2022-11-24T06:10:31.955Z,12.90
2022-11-24T06:12:58.389Z,12.30
2022-11-24T06:15:24.756Z,12.70
2022-11-24T06:17:55.773Z,13.00
2022-11-24T06:20:29.772Z,12.00
2022-11-24T06:23:00.027Z,11.30
2022-11-24T06:25:27.741Z,10.10
2022-11-24T06:27:54.202Z,12.30
2022-11-24T06:30:20.613Z,10.60
2022-11-24T06:32:49.604Z,12.20
2022-11-24T06:35:17.133Z,12.00
2022-11-24T06:37:43.569Z,12.30
2022-11-24T06:40:10.419Z,12.40
2022-11-24T06:42:37.493Z,13.00
2022-11-24T06:45:08.812Z,14.50
2022-11-24T06:47:36.102Z,13.40
2022-11-24T06:50:02.782Z,13.40
2022-11-24T06:52:29.240Z,13.50
2022-11-24T06:54:55.704Z,13.90
2022-11-24T06:57:22.116Z,13.00
2022-11-24T06:59:48.962Z,14.50
2022-11-24T07:02:15.386Z,16.40
2022-11-24T07:04:41.781Z,14.40
2022-11-24T07:07:08.419Z,14.00
2022-11-24T07:09:34.884Z,14.10
2022-11-24T07:12:02.277Z,13.10
2022-11-24T07:14:28.782Z,11.50
2022-11-24T07:16:55.241Z,10.30
2022-11-24T07:19:24.897Z,12.30
2022-11-24T07:21:51.720Z,11.80
2022-11-24T07:24:18.145Z,12.80
2022-11-24T07:26:44.692Z,13.30
2022-11-24T07:29:11.103Z,12.00
2022-11-24T07:31:37.874Z,11.30
2022-11-24T07:34:04.324Z,10.40
2022-11-24T07:36:30.841Z,12.00
2022-11-24T07:38:57.480Z,13.20
2022-11-24T07:41:23.904Z,11.90
2022-11-24T07:43:51.546Z,11.40
2022-11-24T07:46:19.863Z,11.50
2022-11-24T07:48:47.194Z,12.90
2022-11-24T07:51:14.132Z,12.30
2022-11-24T07:53:40.612Z,10.80
2022-11-24T07:56:08.860Z,9.60
2022-11-24T07:58:37.471Z,11.90
2022-11-24T08:01:16.610Z,10.50
2022-11-24T08:03:44.785Z,10.40
2022-11-24T08:06:25.142Z,10.90
2022-11-24T08:08:55.071Z,11.20
2022-11-24T08:11:21.752Z,12.50
2022-11-24T08:13:48.261Z,12.50
2022-11-24T08:16:17.614Z,11.70
2022-11-24T08:18:50.323Z,11.70
2022-11-24T08:21:16.840Z,13.00
2022-11-24T08:23:43.292Z,11.50
2022-11-24T08:26:17.556Z,11.40
2022-11-24T08:28:46.239Z,12.00
2022-11-24T08:31:16.731Z,12.30
2022-11-24T08:33:43.290Z,13.00
2022-11-24T08:36:13.790Z,11.70
2022-11-24T08:38:40.960Z,11.30
2022-11-24T08:41:12.324Z,12.60
2022-11-24T08:43:39.112Z,12.40
2022-11-24T08:46:09.823Z,12.30
2022-11-24T08:48:36.964Z,12.20
2022-11-24T08:51:14.488Z,11.60
2022-11-24T08:53:42.099Z,13.20
2022-11-24T08:56:10.828Z,14.10
2022-11-24T08:58:38.665Z,12.30
2022-11-24T09:01:12.887Z,12.20
2022-11-24T09:03:44.785Z,11.20
2022-11-24T09:06:16.698Z,10.40
2022-11-24T09:08:43.270Z,12.00
2022-11-24T09:11:14.374Z,11.10
2022-11-24T09:13:41.307Z,12.50
2022-11-24T09:16:18.487Z,12.90
2022-11-24T09:18:45.670Z,12.80
2022-11-24T09:21:20.581Z,11.50
2022-11-24T09:23:50.105Z,9.20
2022-11-24T09:26:30.178Z,12.00
2022-11-24T09:28:59.293Z,11.60
2022-11-24T09:31:36.180Z,11.30
2022-11-24T09:34:07.163Z,11.80
2022-11-24T09:36:34.100Z,12.30
2022-11-24T09:39:01.008Z,10.70
2022-11-24T09:41:48.807Z,11.20
2022-11-24T09:44:58.239Z,11.10
2022-11-24T09:47:48.988Z,10.20
2022-11-24T09:50:22.507Z,11.90
2022-11-24T09:53:28.712Z,14.00
2022-11-24T09:56:00.581Z,10.60
2022-11-24T09:58:48.332Z,10.50
2022-11-24T10:01:35.083Z,12.40
2022-11-24T10:04:06.284Z,11.30
2022-11-24T10:06:48.091Z,10.70
2022-11-24T10:09:59.628Z,10.30
2022-11-24T10:12:50.455Z,10.70
2022-11-24T10:15:42.209Z,10.10
2022-11-24T10:18:42.059Z,9.50
2022-11-24T10:21:55.566Z,10.60
2022-11-24T10:25:13.683Z,8.70
2022-11-24T10:27:45.302Z,9.20
2022-11-24T10:30:23.942Z,10.40
2022-11-24T10:33:00.477Z,11.90
2022-11-24T10:35:56.324Z,12.10
2022-11-24T10:38:42.336Z,12.20
2022-11-24T10:41:22.475Z,12.00
2022-11-24T10:43:49.110Z,13.30
2022-11-24T10:46:23.980Z,13.40
2022-11-24T10:48:58.528Z,14.00
2022-11-24T10:51:31.129Z,13.30
2022-11-24T10:54:07.324Z,12.00
2022-11-24T10:56:44.923Z,11.80
2022-11-24T10:59:37.937Z,11.80
2022-11-24T11:02:29.939Z,9.00
2022-11-24T11:04:56.446Z,11.30
2022-11-24T11:07:26.245Z,12.50
2022-11-24T11:10:23.999Z,11.90
2022-11-24T11:12:50.615Z,10.70
2022-11-24T11:15:31.012Z,12.60
2022-11-24T11:18:00.956Z,10.90
2022-11-24T11:20:32.452Z,12.90
2022-11-24T11:23:04.790Z,13.20
2022-11-24T11:25:35.315Z,12.10
2022-11-24T11:28:18.363Z,13.10
2022-11-24T11:31:19.835Z,10.30
2022-11-24T11:34:23.478Z,10.70
2022-11-24T11:36:56.251Z,10.90
2022-11-24T11:39:45.402Z,10.20
2022-11-24T11:43:00.800Z,10.20
2022-11-24T11:46:00.225Z,10.30
2022-11-24T11:48:42.322Z,11.30
2022-11-24T11:51:38.740Z,8.70
2022-11-24T11:54:34.845Z,10.00
2022-11-24T11:57:42.789Z,10.10
2022-11-24T12:00:22.313Z,9.90
2022-11-24T12:03:00.770Z,9.80
2022-11-24T12:05:53.988Z,10.50
2022-11-24T12:09:26.775Z,10.20
2022-11-24T12:12:20.533Z,9.30
2022-11-24T12:15:22.577Z,9.90
2022-11-24T12:18:55.862Z,10.90
2022-11-24T12:21:41.370Z,11.10
2022-11-24T12:24:39.961Z,12.20
2022-11-24T12:27:41.616Z,11.20
2022-11-24T12:30:21.608Z,11.10
2022-11-24T12:33:28.798Z,10.40
2022-11-24T12:36:30.611Z,11.60
2022-11-24T12:39:24.086Z,10.40
2022-11-24T12:42:17.004Z,11.50
2022-11-24T12:45:06.029Z,11.90
2022-11-24T12:47:49.723Z,11.40
2022-11-24T12:50:21.155Z,11.80
2022-11-24T12:53:04.164Z,11.70
2022-11-24T12:55:33.884Z,12.30
2022-11-24T12:58:39.189Z,10.70
2022-11-24T13:01:17.164Z,10.70
2022-11-24T13:04:03.081Z,11.90
2022-11-24T13:06:58.832Z,13.00
2022-11-24T13:09:25.240Z,11.90
2022-11-24T13:11:53.426Z,13.90
2022-11-24T13:14:34.058Z,11.00
2022-11-24T13:17:31.155Z,12.40
2022-11-24T13:20:18.436Z,10.90
2022-11-24T13:23:04.916Z,11.70
2022-11-24T13:25:35.764Z,12.70
2022-11-24T13:28:06.459Z,11.00
2022-11-24T13:30:35.574Z,11.00
2022-11-24T13:33:33.395Z,11.40
2022-11-24T13:36:03.109Z,11.30
2022-11-24T13:38:44.900Z,11.80
2022-11-24T13:41:31.210Z,11.20
2022-11-24T13:44:15.761Z,11.40
2022-11-24T13:47:05.753Z,11.80
2022-11-24T13:49:46.507Z,12.20
2022-11-24T13:53:14.591Z,11.30
2022-11-24T13:55:52.591Z,13.00
2022-11-24T13:58:29.596Z,13.10
2022-11-24T14:01:23.645Z,13.10
2022-11-24T14:04:31.621Z,12.70
2022-11-24T14:07:12.047Z,12.30
2022-11-24T14:09:53.451Z,12.80
2022-11-24T14:12:26.625Z,12.90
2022-11-24T14:14:57.142Z,13.40
2022-11-24T14:17:28.160Z,12.90
2022-11-24T14:19:57.229Z,15.40
2022-11-24T14:22:36.550Z,14.10
2022-11-24T14:25:03.899Z,12.00
2022-11-24T14:27:40.227Z,12.50
2022-11-24T14:30:09.469Z,12.80
2022-11-24T14:32:37.704Z,13.60
2022-11-24T14:35:32.907Z,14.30
2022-11-24T14:38:05.838Z,15.00
2022-11-24T14:40:54.958Z,13.10
2022-11-24T14:43:29.946Z,16.40
2022-11-24T14:46:04.420Z,22.00
2022-11-24T14:48:37.384Z,26.70
2022-11-24T14:51:26.730Z,21.20
2022-11-24T14:53:58.594Z,22.70
2022-11-24T14:56:35.734Z,18.60
2022-11-24T14:59:04.151Z,15.70
2022-11-24T15:01:34.487Z,15.40
2022-11-24T15:07:27.281Z,14.80
2022-11-24T15:10:00.723Z,13.60
2022-11-24T15:12:35.296Z,15.00
2022-11-24T15:15:18.186Z,17.20
2022-11-24T15:17:52.786Z,19.20
2022-11-24T15:20:43.130Z,20.70
2022-11-24T15:23:20.351Z,18.80
2022-11-24T15:25:47.655Z,17.90
2022-11-24T15:28:14.148Z,18.20
2022-11-24T15:30:42.439Z,18.00
2022-11-24T15:33:16.538Z,18.00
2022-11-24T15:35:43.922Z,21.70
2022-11-24T15:38:10.797Z,21.50
2022-11-24T15:40:39.239Z,20.10
2022-11-24T15:43:21.431Z,19.40
2022-11-24T15:45:48.032Z,26.20
2022-11-24T15:48:17.974Z,33.90
2022-11-24T15:50:46.794Z,33.50
2022-11-24T15:53:36.290Z,32.70
2022-11-24T15:56:07.755Z,35.70
2022-11-24T15:58:34.597Z,29.00
2022-11-24T16:01:01.163Z,29.30
2022-11-24T16:06:23.748Z,30.70
2022-11-24T16:08:51.796Z,30.70
2022-11-24T16:11:18.207Z,27.90
2022-11-24T16:13:51.569Z,31.40
2022-11-24T16:16:19.977Z,34.00
2022-11-24T16:18:46.755Z,41.60
2022-11-24T16:21:13.140Z,38.90
2022-11-24T16:23:39.506Z,39.00
2022-11-24T16:26:06.845Z,35.70
2022-11-24T16:28:34.343Z,57.00
2022-11-24T16:31:00.911Z,72.30
2022-11-24T16:33:30.056Z,70.90
2022-11-24T16:35:56.607Z,43.50
2022-11-24T16:38:23.070Z,34.10
2022-11-24T16:40:56.880Z,27.70
2022-11-24T16:43:24.520Z,28.50
2022-11-24T16:46:19.442Z,24.90
2022-11-24T16:48:48.986Z,43.20
2022-11-24T16:51:16.942Z,54.20
2022-11-24T16:53:43.829Z,42.20
2022-11-24T16:56:11.544Z,31.00
2022-11-24T16:58:40.775Z,21.90
2022-11-24T17:01:11.261Z,19.60
2022-11-24T17:03:38.638Z,23.50
2022-11-24T17:06:08.934Z,25.40
2022-11-24T17:08:37.899Z,28.30
2022-11-24T17:11:09.233Z,23.60
2022-11-24T17:13:35.656Z,21.70
2022-11-24T17:16:09.257Z,22.80
2022-11-24T17:18:36.836Z,25.30
2022-11-24T17:21:09.176Z,24.80
2022-11-24T17:23:36.818Z,22.80
2022-11-24T17:26:07.227Z,21.80
2022-11-24T17:28:35.141Z,20.40
2022-11-24T17:31:22.318Z,21.10
2022-11-24T17:33:50.715Z,20.10
2022-11-24T17:36:17.224Z,18.30
2022-11-24T17:38:43.626Z,16.50
2022-11-24T17:41:10.293Z,18.10
2022-11-24T17:43:37.260Z,16.20
2022-11-24T17:46:05.173Z,16.50
2022-11-24T17:48:32.917Z,16.00
2022-11-24T17:51:22.407Z,16.10
2022-11-24T17:53:52.042Z,19.30
2022-11-24T17:56:25.187Z,20.70
2022-11-24T17:58:57.740Z,25.80
2022-11-24T18:01:28.420Z,28.00
2022-11-24T18:03:54.864Z,27.90
2022-11-24T18:06:25.042Z,34.60
2022-11-24T18:08:53.952Z,33.70
2022-11-24T18:11:31.103Z,27.00
2022-11-24T18:14:02.802Z,25.80
2022-11-24T18:16:32.311Z,22.60
2022-11-24T18:19:08.910Z,20.10
2022-11-24T18:21:41.225Z,19.80
2022-11-24T18:24:12.140Z,21.30
2022-11-24T18:26:40.829Z,21.20
2022-11-24T18:29:08.204Z,22.00
2022-11-24T18:31:35.810Z,21.50
2022-11-24T18:34:05.327Z,19.20
2022-11-24T18:36:33.514Z,18.10
2022-11-24T18:39:05.883Z,19.30
2022-11-24T18:41:32.573Z,19.70
2022-11-24T18:44:03.268Z,19.40
2022-11-24T18:46:29.785Z,18.30
2022-11-24T18:48:56.336Z,19.20
2022-11-24T18:51:23.475Z,19.80
2022-11-24T18:53:54.479Z,16.10
2022-11-24T18:56:21.219Z,19.30
2022-11-24T18:58:47.666Z,19.90
2022-11-24T19:01:18.215Z,19.80
2022-11-24T19:03:49.223Z,20.10
2022-11-24T19:06:28.891Z,17.20
2022-11-24T19:08:55.955Z,19.40
2022-11-24T19:11:29.576Z,18.60
2022-11-24T19:13:56.687Z,17.70
2022-11-24T19:16:24.454Z,18.80
2022-11-24T19:18:54.348Z,19.60
2022-11-24T19:21:21.678Z,19.70
2022-11-24T19:23:48.248Z,19.50
2022-11-24T19:26:15.305Z,19.10
2022-11-24T19:28:41.865Z,21.20
2022-11-24T19:31:12.437Z,21.90
2022-11-24T19:33:39.609Z,20.80
2022-11-24T19:36:11.589Z,21.10
2022-11-24T19:38:39.418Z,22.60
2022-11-24T19:41:08.494Z,21.70
2022-11-24T19:43:35.716Z,19.10
2022-11-24T19:46:05.640Z,21.00
2022-11-24T19:48:34.420Z,20.90
2022-11-24T19:51:03.267Z,20.50
2022-11-24T19:53:30.887Z,22.40
2022-11-24T19:56:09.614Z,28.10
2022-11-24T19:58:36.758Z,28.90
2022-11-24T20:01:08.523Z,27.00
2022-11-24T20:03:36.434Z,30.60
2022-11-24T20:06:04.943Z,29.10
2022-11-24T20:08:33.940Z,35.70
2022-11-24T20:11:11.665Z,37.30
2022-11-24T20:13:40.423Z,35.00
2022-11-24T20:16:14.992Z,43.20
2022-11-24T20:18:46.899Z,43.60
2022-11-24T20:21:18.319Z,37.20
2022-11-24T20:23:52.480Z,47.70
2022-11-24T20:26:22.955Z,54.00
2022-11-24T20:28:51.831Z,47.00
2022-11-24T20:31:22.494Z,39.20
2022-11-24T20:33:49.308Z,37.80
2022-11-24T20:36:20.113Z,34.50
2022-11-24T20:38:48.117Z,38.60
2022-11-24T20:41:20.139Z,36.50
2022-11-24T20:43:48.059Z,37.10
2022-11-24T20:46:27.894Z,32.30
2022-11-24T20:48:56.962Z,32.90
2022-11-24T20:51:30.549Z,35.00
2022-11-24T20:54:00.870Z,34.30
2022-11-24T20:56:31.678Z,40.90
2022-11-24T20:58:59.329Z,46.00
2022-11-24T21:01:30.161Z,39.00
2022-11-24T21:03:59.558Z,41.30
2022-11-24T21:06:28.208Z,46.30
2022-11-24T21:09:00.450Z,48.40
2022-11-24T21:11:30.496Z,37.70
2022-11-24T21:13:57.393Z,38.30
2022-11-24T21:16:33.752Z,38.80
2022-11-24T21:19:06.324Z,39.80
2022-11-24T21:21:36.064Z,39.70
2022-11-24T21:24:13.347Z,35.10
2022-11-24T21:26:41.756Z,41.20
2022-11-24T21:29:11.808Z,36.10
2022-11-24T21:31:38.661Z,38.00
2022-11-24T21:34:07.509Z,34.60
2022-11-24T21:36:35.434Z,40.00
2022-11-24T21:39:03.743Z,38.30
2022-11-24T21:41:33.871Z,39.00
2022-11-24T21:44:00.915Z,37.00
2022-11-24T21:46:39.015Z,36.70
2022-11-24T21:49:07.025Z,37.80
2022-11-24T21:51:33.400Z,41.90
2022-11-24T21:53:59.791Z,79.60
2022-11-24T21:56:26.258Z,96.40
2022-11-24T21:58:57.282Z,109.20
2022-11-24T22:01:28.005Z,89.70
2022-11-24T22:03:54.577Z,75.20
2022-11-24T22:06:21.432Z,70.20
2022-11-24T22:08:49.118Z,96.20
2022-11-24T22:11:20.067Z,106.60
2022-11-24T22:13:47.688Z,71.50
2022-11-24T22:16:21.524Z,52.30
2022-11-24T22:18:48.908Z,46.20
2022-11-24T22:21:18.623Z,41.80
2022-11-24T22:23:45.385Z,39.60
2022-11-24T22:26:16.757Z,41.40
2022-11-24T22:28:44.963Z,37.60
2022-11-24T22:31:19.242Z,39.10
2022-11-24T22:33:46.414Z,38.90
2022-11-24T22:36:14.926Z,39.20
2022-11-24T22:38:42.543Z,32.40
2022-11-24T22:41:16.089Z,28.40
2022-11-24T22:43:44.287Z,31.90
2022-11-24T22:46:16.698Z,27.20
2022-11-24T22:48:45.111Z,25.00
2022-11-24T22:51:15.680Z,24.80
2022-11-24T22:53:48.539Z,22.30
2022-11-24T22:56:16.087Z,22.70
2022-11-24T22:58:43.154Z,23.20
2022-11-24T23:01:25.344Z,23.00
2022-11-24T23:03:54.505Z,24.10
2022-11-24T23:06:30.907Z,23.20
2022-11-24T23:09:00.027Z,26.20
2022-11-24T23:11:36.415Z,27.10
2022-11-24T23:14:05.935Z,27.50
2022-11-24T23:16:32.522Z,29.50
2022-11-24T23:18:59.044Z,30.50
2022-11-24T23:21:30.522Z,27.70
2022-11-24T23:24:00.232Z,29.20
2022-11-24T23:26:31.862Z,28.70
2022-11-24T23:28:58.634Z,26.70
2022-11-24T23:31:28.898Z,26.10
2022-11-24T23:34:00.907Z,25.50
2022-11-24T23:36:29.092Z,26.20
2022-11-24T23:38:55.943Z,24.50
2022-11-24T23:41:25.686Z,24.80
2022-11-24T23:43:52.667Z,22.50
2022-11-24T23:46:23.093Z,22.90
2022-11-24T23:48:51.778Z,26.80
2022-11-24T23:51:20.673Z,26.80
2022-11-24T23:53:47.437Z,24.70
2022-11-24T23:56:21.046Z,26.80
2022-11-24T23:58:47.927Z,25.90
